This is the latest recevied weather packets stored in our database for station/object WX4FLY-3. If no packets are shown the sender has not sent any weather packets the latest 1 day(s).
| Time | Temp. | Humidity | Pressure | Rain* | Wind** | Luminosity | Snow |
|---|---|---|---|---|---|---|---|
| 1778089174 | 25° C | 77% | 1017.2 hPa | 0 mm | - | - | - |
| 1778087372 | 23.33° C | 81% | 1017.1 hPa | 0 mm | - | - | - |
| 1778086171 | 23.33° C | 81% | 1017.4 hPa | 0 mm | - | - | - |
| 1778084970 | 22.78° C | 83% | 1017.6 hPa | 0 mm | - | - | - |
| 1778080766 | 23.89° C | 76% | 1017.5 hPa | 0 mm | - | - | - |
| 1778078964 | 24.44° C | 76% | 1017.7 hPa | 0 mm | - | - | - |
| 1778077763 | 23.89° C | 77% | 1017.7 hPa | 0 mm | - | - | - |
| 1778076562 | 23.33° C | 78% | 1017.8 hPa | 0 mm | - | - | - |
| 1778074760 | 21.11° C | 85% | 1017.8 hPa | 0 mm | - | - | - |
| 1778072358 | 21.11° C | 86% | 1017.3 hPa | 0 mm | - | - | - |
| 1778070556 | 21.11° C | 86% | 1017.2 hPa | 0 mm | - | - | - |
| 1778069355 | 20.56° C | 86% | 1017.2 hPa | 0 mm | - | - | - |
| 1778068154 | 20° C | 87% | 1017.4 hPa | 0 mm | - | - | - |
| 1778065151 | 19.44° C | 88% | 1017.2 hPa | 0 mm | - | - | - |
| 1778063950 | 18.89° C | 89% | 1017 hPa | 0 mm | - | - | - |
| 1778062148 | 18.89° C | 89% | 1017 hPa | 0 mm | - | - | - |
| 1778060947 | 18.89° C | 90% | 1016.8 hPa | 0 mm | - | - | - |
| 1778060346 | 18.89° C | 89% | 1016.7 hPa | 0 mm | - | - | - |
| 1778059746 | 18.89° C | 89% | 1016.6 hPa | 0 mm | - | - | - |
| 1778058545 | 18.89° C | 88% | 1016.7 hPa | 0 mm | - | - | - |
| 1778057944 | 18.89° C | 88% | 1016.9 hPa | 0 mm | - | - | - |
| 1778056743 | 18.89° C | 89% | 1016.8 hPa | 0 mm | - | - | - |
| 1778055542 | 18.89° C | 88% | 1016.7 hPa | 0 mm | - | - | - |
| 1778054341 | 19.44° C | 87% | 1016.8 hPa | 0 mm | - | - | - |
| 1778053740 | 19.44° C | 87% | 1016.9 hPa | 0 mm | - | - | - |
* Rain latest hour (hover to see other rain measurements)
** Current wind speed in m/s (hover to see current wind gust speed)